createdAt,value
2019-03-17T00:01:57.999Z,15.27
2019-03-17T00:04:31.499Z,17.30
2019-03-17T00:06:53.767Z,17.43
2019-03-17T00:09:20.557Z,14.23
2019-03-17T00:11:47.481Z,15.30
2019-03-17T00:14:14.525Z,18.20
2019-03-17T00:16:41.445Z,14.13
2019-03-17T00:19:08.363Z,12.23
2019-03-17T00:21:35.313Z,18.17
2019-03-17T00:24:02.345Z,13.00
2019-03-17T00:26:29.256Z,12.63
2019-03-17T00:28:56.143Z,16.13
2019-03-17T00:31:24.398Z,15.83
2019-03-17T00:33:51.562Z,13.83
2019-03-17T00:36:18.400Z,15.77
2019-03-17T00:38:45.204Z,12.10
2019-03-17T00:41:12.006Z,12.90
2019-03-17T00:43:38.925Z,14.73
2019-03-17T00:46:05.928Z,12.00
2019-03-17T00:48:32.754Z,10.10
2019-03-17T00:50:59.606Z,11.87
2019-03-17T00:53:26.405Z,11.83
2019-03-17T00:55:53.223Z,13.67
2019-03-17T00:58:20.069Z,14.37
2019-03-17T01:00:47.078Z,12.47
2019-03-17T01:03:13.990Z,12.63
2019-03-17T01:05:40.829Z,12.67
2019-03-17T01:08:07.873Z,11.33
2019-03-17T01:10:34.799Z,11.27
2019-03-17T01:13:02.347Z,11.53
2019-03-17T01:15:29.147Z,13.93
2019-03-17T01:17:56.054Z,12.77
2019-03-17T01:20:22.914Z,16.73
2019-03-17T01:22:49.713Z,17.90
2019-03-17T01:25:16.637Z,16.50
2019-03-17T01:27:43.476Z,13.97
2019-03-17T01:30:11.299Z,17.10
2019-03-17T01:32:38.497Z,19.63
2019-03-17T01:35:09.625Z,19.30
2019-03-17T01:37:34.346Z,19.87
2019-03-17T01:40:01.186Z,26.70
2019-03-17T01:42:28.216Z,22.17
2019-03-17T01:44:55.122Z,23.07
2019-03-17T01:47:22.131Z,27.00
2019-03-17T01:49:48.984Z,31.43
2019-03-17T01:52:15.786Z,27.33
2019-03-17T01:54:42.614Z,24.93
2019-03-17T01:57:09.546Z,31.70
2019-03-17T01:59:36.345Z,27.77
2019-03-17T02:02:03.261Z,27.90
2019-03-17T02:04:30.205Z,31.20
2019-03-17T02:06:57.028Z,25.23
2019-03-17T02:09:23.857Z,32.23
2019-03-17T02:11:50.695Z,24.00
2019-03-17T02:14:17.459Z,31.47
2019-03-17T02:16:44.472Z,30.90
2019-03-17T02:19:11.306Z,22.00
2019-03-17T02:21:38.222Z,27.80
2019-03-17T02:24:05.142Z,28.63
2019-03-17T02:26:31.966Z,24.97
2019-03-17T02:28:58.766Z,29.17
2019-03-17T02:31:25.763Z,24.20
2019-03-17T02:33:52.723Z,27.00
2019-03-17T02:36:19.542Z,29.53
2019-03-17T02:38:46.346Z,24.73
2019-03-17T02:41:13.190Z,27.90
2019-03-17T02:43:40.004Z,30.73
2019-03-17T02:46:06.916Z,25.10
2019-03-17T02:48:33.847Z,27.07
2019-03-17T02:51:00.760Z,28.27
2019-03-17T02:53:27.577Z,32.03
2019-03-17T02:55:54.536Z,31.87
2019-03-17T02:58:21.339Z,22.23
2019-03-17T03:00:48.150Z,24.23
2019-03-17T03:03:15.093Z,21.90
2019-03-17T03:05:53.959Z,21.17
2019-03-17T03:08:10.751Z,28.57
2019-03-17T03:10:37.697Z,21.67
2019-03-17T03:13:04.738Z,22.33
2019-03-17T03:15:31.660Z,20.33
2019-03-17T03:17:58.682Z,25.47
2019-03-17T03:20:25.513Z,21.67
2019-03-17T03:22:52.299Z,27.10
2019-03-17T03:25:19.152Z,25.10
2019-03-17T03:27:46.344Z,25.90
2019-03-17T03:30:13.448Z,26.27
2019-03-17T03:32:40.478Z,25.77
2019-03-17T03:35:07.508Z,20.10
2019-03-17T03:37:34.521Z,21.37
2019-03-17T03:40:01.679Z,15.03
2019-03-17T03:42:28.989Z,20.30
2019-03-17T03:44:55.799Z,17.53
2019-03-17T03:47:22.731Z,21.43
2019-03-17T03:49:49.554Z,17.43
2019-03-17T03:52:16.467Z,19.13
2019-03-17T03:54:43.439Z,20.33
2019-03-17T03:57:10.321Z,17.90
2019-03-17T03:59:37.209Z,18.77
2019-03-17T04:02:04.286Z,16.87
2019-03-17T04:04:31.196Z,18.67
2019-03-17T04:06:58.079Z,16.07
2019-03-17T04:09:25.023Z,16.23
2019-03-17T04:11:51.938Z,18.70
2019-03-17T04:14:18.732Z,20.50
2019-03-17T04:16:45.589Z,21.07
2019-03-17T04:19:12.412Z,17.13
2019-03-17T04:21:39.308Z,15.83
2019-03-17T04:24:06.340Z,17.10
2019-03-17T04:26:33.223Z,22.10
2019-03-17T04:29:00.047Z,13.27
2019-03-17T04:31:26.907Z,15.77
2019-03-17T04:33:53.716Z,14.60
2019-03-17T04:36:20.617Z,18.87
2019-03-17T04:38:47.445Z,18.70
2019-03-17T04:41:14.253Z,14.03
2019-03-17T04:43:41.050Z,19.47
2019-03-17T04:46:07.960Z,13.93
2019-03-17T04:48:34.916Z,15.07
2019-03-17T04:51:01.942Z,16.33
2019-03-17T04:53:28.823Z,13.43
2019-03-17T04:55:55.659Z,15.83
2019-03-17T04:58:22.503Z,20.90
2019-03-17T05:00:49.554Z,16.87
2019-03-17T05:03:16.393Z,20.07
2019-03-17T05:05:43.221Z,15.70
2019-03-17T05:08:10.098Z,17.30
2019-03-17T05:10:36.930Z,18.40
2019-03-17T05:13:03.761Z,18.13
2019-03-17T05:15:30.706Z,17.20
2019-03-17T05:17:57.539Z,19.40
2019-03-17T05:20:24.365Z,13.10
2019-03-17T05:22:51.310Z,17.13
2019-03-17T05:25:18.133Z,15.10
2019-03-17T05:27:44.967Z,15.83
2019-03-17T05:30:12.046Z,12.83
2019-03-17T05:32:39.008Z,15.67
2019-03-17T05:35:06.519Z,16.00
2019-03-17T05:37:33.378Z,20.63
2019-03-17T05:40:00.470Z,14.50
2019-03-17T05:42:27.288Z,20.00
2019-03-17T05:44:54.157Z,17.60
2019-03-17T05:47:21.077Z,20.43
2019-03-17T05:49:47.916Z,20.10
2019-03-17T05:52:14.767Z,18.00
2019-03-17T05:54:41.601Z,17.33
2019-03-17T05:57:08.516Z,16.97
2019-03-17T05:59:35.377Z,18.60
2019-03-17T06:02:02.306Z,20.20
2019-03-17T06:04:29.126Z,21.13
2019-03-17T06:06:55.994Z,21.80
2019-03-17T06:09:22.826Z,12.83
2019-03-17T06:11:50.586Z,19.87
2019-03-17T06:14:17.425Z,17.70
2019-03-17T06:16:44.342Z,18.87
2019-03-17T06:19:11.166Z,16.17
2019-03-17T06:21:38.131Z,20.40
2019-03-17T06:24:05.230Z,15.67
2019-03-17T06:26:32.090Z,16.57
2019-03-17T06:28:58.913Z,19.33
2019-03-17T06:31:25.722Z,18.23
2019-03-17T06:33:52.627Z,16.50
2019-03-17T06:36:19.498Z,16.70
2019-03-17T06:38:46.454Z,18.50
2019-03-17T06:41:13.265Z,17.73
2019-03-17T06:43:41.708Z,14.50
2019-03-17T06:46:08.555Z,16.77
2019-03-17T06:48:35.420Z,15.07
2019-03-17T06:51:02.293Z,18.97
2019-03-17T06:53:29.112Z,20.03
2019-03-17T06:56:15.607Z,19.23
2019-03-17T06:58:42.463Z,17.73
2019-03-17T07:01:09.412Z,19.80
2019-03-17T07:03:36.292Z,19.93
2019-03-17T07:06:03.315Z,18.07
2019-03-17T07:08:30.117Z,18.30
2019-03-17T07:10:57.080Z,18.73
2019-03-17T07:13:24.055Z,19.60
2019-03-17T07:15:50.874Z,22.17
2019-03-17T07:18:17.857Z,19.20
2019-03-17T07:20:44.830Z,17.07
2019-03-17T07:23:11.849Z,19.27
2019-03-17T07:25:38.864Z,17.93
2019-03-17T07:28:05.719Z,18.30
2019-03-17T07:30:32.738Z,21.67
2019-03-17T07:32:59.742Z,20.77
2019-03-17T07:35:26.553Z,20.07
2019-03-17T07:37:56.950Z,19.37
2019-03-17T07:40:22.181Z,17.20
2019-03-17T07:42:49.081Z,19.27
2019-03-17T07:45:16.022Z,19.57
2019-03-17T07:47:43.016Z,17.03
2019-03-17T07:50:10.052Z,16.07
2019-03-17T07:52:36.895Z,15.67
2019-03-17T07:55:06.285Z,19.83
2019-03-17T07:57:33.113Z,15.97
2019-03-17T07:59:59.930Z,19.43
2019-03-17T08:02:26.823Z,21.17
2019-03-17T08:04:53.662Z,19.60
2019-03-17T08:07:20.570Z,22.17
2019-03-17T08:09:47.544Z,20.07
2019-03-17T08:12:14.573Z,19.90
2019-03-17T08:14:41.477Z,20.43
2019-03-17T08:17:08.424Z,19.97
2019-03-17T08:19:35.258Z,23.93
2019-03-17T08:22:02.230Z,26.27
2019-03-17T08:24:29.270Z,25.90
2019-03-17T08:26:56.107Z,14.40
2019-03-17T08:29:23.142Z,15.70
2019-03-17T08:31:49.998Z,11.57
2019-03-17T08:34:16.827Z,15.57
2019-03-17T08:36:43.749Z,9.83
2019-03-17T08:39:10.717Z,7.67
2019-03-17T08:41:37.870Z,6.80
2019-03-17T08:44:04.941Z,3.07
2019-03-17T08:46:31.890Z,5.13
2019-03-17T08:48:58.968Z,7.70
2019-03-17T08:51:25.998Z,8.03
2019-03-17T08:53:53.127Z,5.90
2019-03-17T08:56:20.238Z,5.30
2019-03-17T08:58:47.059Z,5.37
2019-03-17T09:01:14.147Z,12.93
2019-03-17T09:03:41.481Z,7.03
2019-03-17T09:06:08.440Z,7.77
2019-03-17T09:08:35.703Z,23.27
2019-03-17T09:11:02.696Z,10.53
2019-03-17T09:13:29.506Z,13.17
2019-03-17T09:15:56.671Z,9.20
2019-03-17T09:18:23.501Z,4.73
2019-03-17T09:20:50.445Z,11.10
2019-03-17T09:23:17.271Z,8.30
2019-03-17T09:25:44.138Z,11.30
2019-03-17T09:28:10.953Z,7.83
2019-03-17T09:30:37.835Z,5.20
2019-03-17T09:33:04.729Z,11.37
2019-03-17T09:35:31.674Z,10.90
2019-03-17T09:37:58.664Z,9.30
2019-03-17T09:40:25.584Z,9.80
2019-03-17T09:42:52.397Z,10.40
2019-03-17T09:45:19.239Z,7.20
2019-03-17T09:47:46.187Z,12.63
2019-03-17T09:50:13.229Z,11.67
2019-03-17T09:52:40.087Z,9.87
2019-03-17T09:55:07.164Z,9.40
2019-03-17T09:57:34.095Z,6.73
2019-03-17T10:00:00.952Z,8.83
2019-03-17T10:02:27.994Z,9.10
2019-03-17T10:04:54.882Z,15.47
2019-03-17T10:07:21.972Z,11.77
2019-03-17T10:09:48.781Z,9.90
2019-03-17T10:12:15.739Z,14.33
2019-03-17T10:14:42.595Z,8.07
2019-03-17T10:17:09.539Z,11.03
2019-03-17T10:19:36.597Z,10.03
2019-03-17T10:22:03.675Z,11.43
2019-03-17T10:24:30.496Z,15.50
2019-03-17T10:26:57.430Z,13.93
2019-03-17T10:29:24.642Z,10.43
2019-03-17T10:31:51.542Z,7.57
2019-03-17T10:34:18.356Z,18.23
2019-03-17T10:36:45.337Z,14.07
2019-03-17T10:39:12.856Z,14.83
2019-03-17T10:41:45.180Z,17.27
2019-03-17T10:44:19.655Z,11.23
2019-03-17T10:46:46.852Z,10.10
2019-03-17T10:49:13.778Z,13.30
2019-03-17T10:51:40.798Z,9.63
2019-03-17T10:54:07.665Z,12.00
2019-03-17T10:56:34.475Z,11.00
2019-03-17T10:59:01.323Z,11.93
2019-03-17T11:01:28.144Z,12.17
2019-03-17T11:03:54.974Z,8.33
2019-03-17T11:06:22.050Z,9.77
2019-03-17T11:08:48.887Z,12.77
2019-03-17T11:11:15.777Z,10.77
2019-03-17T11:13:42.638Z,9.20
2019-03-17T11:16:09.448Z,10.93
2019-03-17T11:18:36.271Z,9.83
2019-03-17T11:21:03.332Z,12.90
2019-03-17T11:23:30.180Z,9.03
2019-03-17T11:25:57.106Z,12.47
2019-03-17T11:28:23.945Z,13.13
2019-03-17T11:30:58.136Z,9.60
2019-03-17T11:33:25.189Z,10.47
2019-03-17T11:35:52.244Z,9.20
2019-03-17T11:38:19.180Z,9.23
2019-03-17T11:40:46.282Z,9.87
2019-03-17T11:43:13.475Z,9.97
2019-03-17T11:45:40.306Z,6.97
2019-03-17T11:48:07.358Z,11.90
2019-03-17T11:50:34.460Z,10.33
2019-03-17T11:53:01.402Z,8.90
2019-03-17T11:55:28.346Z,11.87
2019-03-17T11:57:55.411Z,8.20
2019-03-17T12:00:22.451Z,15.23
2019-03-17T12:02:49.494Z,11.40
2019-03-17T12:05:16.453Z,13.90
2019-03-17T12:07:43.433Z,12.10
2019-03-17T12:10:11.525Z,10.33
2019-03-17T12:12:38.578Z,8.30
2019-03-17T12:15:06.631Z,5.63
2019-03-17T12:17:34.750Z,3.93
2019-03-17T12:20:01.825Z,8.37
2019-03-17T12:22:28.825Z,8.67
2019-03-17T12:24:55.628Z,9.20
2019-03-17T12:27:22.690Z,7.57
2019-03-17T12:29:49.705Z,6.17
2019-03-17T12:32:16.550Z,9.87
2019-03-17T12:34:43.412Z,6.80
2019-03-17T12:37:10.230Z,10.60
2019-03-17T12:39:37.045Z,7.57
2019-03-17T12:42:03.912Z,4.20
2019-03-17T12:44:31.019Z,8.30
2019-03-17T12:46:57.842Z,6.00
2019-03-17T12:49:24.684Z,4.40
2019-03-17T12:51:51.483Z,6.13
2019-03-17T12:54:18.294Z,4.97
2019-03-17T12:56:45.363Z,6.37
2019-03-17T12:59:12.199Z,5.40
2019-03-17T13:01:39.127Z,10.20
2019-03-17T13:04:06.203Z,8.07
2019-03-17T13:06:33.219Z,6.10
2019-03-17T13:09:01.157Z,9.27
2019-03-17T13:11:28.261Z,9.23
2019-03-17T13:13:55.118Z,5.60
2019-03-17T13:16:22.026Z,4.50
2019-03-17T13:18:49.122Z,6.83
2019-03-17T13:21:15.962Z,4.47
2019-03-17T13:23:43.802Z,7.40
2019-03-17T13:26:10.753Z,6.70
2019-03-17T13:28:37.683Z,6.03
2019-03-17T13:31:04.607Z,6.93
2019-03-17T13:33:31.494Z,4.60
2019-03-17T13:35:59.420Z,3.97
2019-03-17T13:38:26.322Z,3.43
2019-03-17T13:40:53.195Z,4.30
2019-03-17T13:43:20.126Z,5.23
2019-03-17T13:45:47.038Z,5.53
2019-03-17T13:48:14.004Z,6.20
2019-03-17T13:50:40.819Z,7.13
2019-03-17T13:53:07.735Z,9.67
2019-03-17T13:55:34.594Z,8.50
2019-03-17T13:58:01.506Z,3.47
2019-03-17T14:00:28.452Z,6.73
2019-03-17T14:02:55.506Z,5.73
2019-03-17T14:05:22.551Z,9.00
2019-03-17T14:07:49.497Z,4.97
2019-03-17T14:10:16.608Z,4.87
2019-03-17T14:12:43.654Z,5.90
2019-03-17T14:15:11.523Z,10.77
2019-03-17T14:17:38.596Z,5.60
2019-03-17T14:20:07.091Z,7.17
2019-03-17T14:22:33.994Z,9.00
2019-03-17T14:25:01.007Z,11.33
2019-03-17T14:27:28.048Z,6.63
2019-03-17T14:29:54.846Z,4.23
2019-03-17T14:32:21.730Z,7.63
2019-03-17T14:34:48.762Z,8.27
2019-03-17T14:37:15.693Z,7.73
2019-03-17T14:39:42.679Z,8.23
2019-03-17T14:42:09.513Z,4.43
2019-03-17T14:44:36.325Z,5.93
2019-03-17T14:47:03.496Z,3.33
2019-03-17T14:49:30.315Z,5.17
2019-03-17T14:51:57.140Z,4.30
2019-03-17T14:54:24.075Z,5.17
2019-03-17T14:56:50.943Z,5.87
2019-03-17T14:59:17.771Z,4.23
2019-03-17T15:01:44.646Z,6.97
2019-03-17T15:04:11.652Z,6.03
2019-03-17T15:06:38.582Z,5.93
2019-03-17T15:09:07.170Z,6.27
2019-03-17T15:11:34.107Z,6.60
2019-03-17T15:14:00.920Z,7.93
2019-03-17T15:16:27.753Z,7.80
2019-03-17T15:18:54.674Z,7.43
2019-03-17T15:21:21.496Z,6.20
2019-03-17T15:23:48.472Z,10.70
2019-03-17T15:26:15.291Z,7.63
2019-03-17T15:28:42.112Z,11.43
2019-03-17T15:31:12.067Z,6.80
2019-03-17T15:33:37.826Z,7.07
2019-03-17T15:36:04.872Z,5.10
2019-03-17T15:38:31.702Z,5.67
2019-03-17T15:40:58.616Z,8.37
2019-03-17T15:43:25.546Z,7.90
2019-03-17T15:45:52.440Z,8.70
2019-03-17T15:48:19.259Z,7.37
2019-03-17T15:50:46.070Z,9.93
2019-03-17T15:53:13.061Z,8.83
2019-03-17T15:55:59.503Z,10.00
2019-03-17T15:58:26.484Z,8.63
2019-03-17T16:00:53.310Z,7.73
2019-03-17T16:03:20.232Z,8.87
2019-03-17T16:05:47.194Z,8.33
2019-03-17T16:08:14.007Z,7.90
2019-03-17T16:10:40.947Z,6.20
2019-03-17T16:13:07.826Z,12.27
2019-03-17T16:15:34.749Z,9.27
2019-03-17T16:18:01.663Z,9.03
2019-03-17T16:20:28.634Z,8.23
2019-03-17T16:22:55.682Z,8.70
2019-03-17T16:25:22.484Z,6.03
2019-03-17T16:27:49.490Z,6.70
2019-03-17T16:30:20.796Z,11.10
2019-03-17T16:32:47.947Z,10.73
2019-03-17T16:35:15.009Z,7.43
2019-03-17T16:37:41.974Z,10.30
2019-03-17T16:40:10.437Z,12.53
2019-03-17T16:42:37.299Z,8.63
2019-03-17T16:45:05.294Z,6.90
2019-03-17T16:47:32.953Z,12.20
2019-03-17T16:49:59.819Z,12.37
2019-03-17T16:52:26.636Z,11.10
2019-03-17T16:54:53.499Z,10.10
2019-03-17T16:57:20.446Z,9.93
2019-03-17T16:59:47.278Z,9.40
2019-03-17T17:02:14.109Z,14.13
2019-03-17T17:04:41.185Z,8.53
2019-03-17T17:07:08.115Z,9.23
2019-03-17T17:09:34.943Z,16.47
2019-03-17T17:12:02.138Z,14.70
2019-03-17T17:14:29.271Z,8.53
2019-03-17T17:16:56.106Z,9.07
2019-03-17T17:19:23.099Z,9.23
2019-03-17T17:21:50.134Z,6.80
2019-03-17T17:24:16.953Z,7.70
2019-03-17T17:26:44.152Z,8.90
2019-03-17T17:29:11.087Z,8.87
2019-03-17T17:31:38.274Z,8.87
2019-03-17T17:34:05.426Z,12.97
2019-03-17T17:36:32.240Z,10.60
2019-03-17T17:38:59.166Z,10.67
2019-03-17T17:41:26.026Z,13.97
2019-03-17T17:43:53.040Z,11.10
2019-03-17T17:46:20.089Z,8.50
2019-03-17T17:48:47.229Z,10.17
2019-03-17T17:51:14.229Z,8.73
2019-03-17T17:53:41.049Z,17.53
2019-03-17T17:56:07.901Z,13.43
2019-03-17T17:58:34.724Z,10.90
2019-03-17T18:01:01.551Z,8.70
2019-03-17T18:03:28.590Z,6.07
2019-03-17T18:05:55.609Z,10.07
2019-03-17T18:08:22.541Z,8.83
2019-03-17T18:10:49.474Z,10.77
2019-03-17T18:13:16.414Z,10.93
2019-03-17T18:15:43.410Z,8.93
2019-03-17T18:18:10.269Z,13.97
2019-03-17T18:20:37.199Z,11.97
2019-03-17T18:23:04.093Z,11.67
2019-03-17T18:25:30.966Z,13.07
2019-03-17T18:27:57.970Z,13.90
2019-03-17T18:30:24.886Z,10.80
2019-03-17T18:32:51.850Z,11.93
2019-03-17T18:35:18.810Z,10.87
2019-03-17T18:37:45.756Z,10.17
2019-03-17T18:40:13.110Z,7.47
2019-03-17T18:42:39.916Z,10.67
2019-03-17T18:45:08.209Z,13.30
2019-03-17T18:47:35.183Z,13.93
2019-03-17T18:50:02.166Z,11.80
2019-03-17T18:52:29.095Z,12.43
2019-03-17T18:54:55.938Z,9.30
2019-03-17T18:57:23.070Z,11.40
2019-03-17T18:59:50.143Z,11.30
2019-03-17T19:02:17.102Z,16.87
2019-03-17T19:04:44.110Z,13.30
2019-03-17T19:07:10.914Z,11.53
2019-03-17T19:09:37.779Z,8.63
2019-03-17T19:12:04.747Z,16.93
2019-03-17T19:14:31.533Z,13.93
2019-03-17T19:16:58.362Z,11.03
2019-03-17T19:19:25.322Z,13.00
2019-03-17T19:21:52.207Z,14.73
2019-03-17T19:24:19.134Z,12.47
2019-03-17T19:26:46.053Z,11.80
2019-03-17T19:29:12.858Z,12.13
2019-03-17T19:31:39.802Z,10.93
2019-03-17T19:34:06.707Z,12.27
2019-03-17T19:36:33.623Z,12.40
2019-03-17T19:39:00.449Z,16.10
2019-03-17T19:41:27.249Z,11.80
2019-03-17T19:43:54.052Z,12.47
2019-03-17T19:46:20.891Z,10.40
2019-03-17T19:48:47.794Z,8.33
2019-03-17T19:51:14.624Z,9.07
2019-03-17T19:53:41.449Z,10.87
2019-03-17T19:56:08.259Z,10.93
2019-03-17T19:58:35.220Z,8.57
2019-03-17T20:01:02.198Z,17.03
2019-03-17T20:03:29.142Z,9.30
2019-03-17T20:06:02.048Z,15.67
2019-03-17T20:08:24.933Z,13.53
2019-03-17T20:10:51.958Z,11.97
2019-03-17T20:13:18.737Z,12.67
2019-03-17T20:15:45.663Z,11.60
2019-03-17T20:18:12.669Z,21.90
2019-03-17T20:20:39.488Z,9.67
2019-03-17T20:23:06.338Z,14.53
2019-03-17T20:25:33.238Z,9.97
2019-03-17T20:28:00.171Z,16.37
2019-03-17T20:30:27.145Z,12.57
2019-03-17T20:32:54.304Z,15.07
2019-03-17T20:35:21.252Z,10.70
2019-03-17T20:37:48.224Z,8.67
2019-03-17T20:40:15.048Z,8.93
2019-03-17T20:42:42.041Z,15.00
2019-03-17T20:45:09.954Z,14.20
2019-03-17T20:47:36.885Z,9.20
2019-03-17T20:50:04.422Z,11.63
2019-03-17T20:52:31.245Z,11.27
2019-03-17T20:54:58.034Z,11.33
2019-03-17T20:57:24.843Z,9.37
2019-03-17T20:59:51.684Z,10.33
2019-03-17T21:02:18.504Z,13.97
2019-03-17T21:04:45.361Z,11.43
2019-03-17T21:07:12.298Z,9.77
2019-03-17T21:09:39.097Z,10.20
2019-03-17T21:12:06.006Z,10.53
2019-03-17T21:14:32.950Z,13.13
2019-03-17T21:16:59.753Z,15.93
2019-03-17T21:19:26.552Z,15.17
2019-03-17T21:21:53.402Z,10.50
2019-03-17T21:24:20.197Z,18.53
2019-03-17T21:26:47.134Z,12.50
2019-03-17T21:29:13.986Z,13.47
2019-03-17T21:31:40.790Z,18.57
2019-03-17T21:34:07.606Z,13.23
2019-03-17T21:36:34.445Z,13.87
2019-03-17T21:39:01.279Z,13.33
2019-03-17T21:41:28.074Z,6.30
2019-03-17T21:43:59.593Z,13.47
2019-03-17T21:46:23.650Z,12.03
2019-03-17T21:48:50.642Z,10.77
2019-03-17T21:51:17.526Z,7.97
2019-03-17T21:53:44.344Z,8.83
2019-03-17T21:56:11.472Z,16.87
2019-03-17T21:58:38.312Z,10.93
2019-03-17T22:01:05.268Z,11.77
2019-03-17T22:03:32.193Z,13.67
2019-03-17T22:05:59.206Z,15.60
2019-03-17T22:08:26.126Z,15.83
2019-03-17T22:10:53.070Z,11.63
2019-03-17T22:13:19.922Z,11.47
2019-03-17T22:15:46.834Z,9.87
2019-03-17T22:18:13.628Z,10.37
2019-03-17T22:20:40.697Z,12.70
2019-03-17T22:23:07.700Z,9.60
2019-03-17T22:25:34.697Z,14.17
2019-03-17T22:28:08.358Z,10.97
2019-03-17T22:30:30.382Z,10.93
2019-03-17T22:32:57.295Z,14.33
2019-03-17T22:35:24.344Z,9.33
2019-03-17T22:37:51.226Z,9.00
2019-03-17T22:40:18.389Z,14.37
2019-03-17T22:42:45.309Z,10.83
2019-03-17T22:45:12.432Z,14.10
2019-03-17T22:47:40.427Z,10.00
2019-03-17T22:50:26.898Z,13.03
2019-03-17T22:52:53.753Z,14.77
2019-03-17T22:55:20.671Z,12.03
2019-03-17T22:57:47.636Z,15.53
2019-03-17T23:00:15.563Z,16.83
2019-03-17T23:02:42.581Z,14.80
2019-03-17T23:05:09.648Z,7.10
2019-03-17T23:07:36.496Z,11.37
2019-03-17T23:10:04.033Z,11.37
2019-03-17T23:12:30.871Z,13.90
2019-03-17T23:14:57.714Z,12.43
2019-03-17T23:17:24.616Z,5.73
2019-03-17T23:19:51.773Z,13.80
2019-03-17T23:22:18.682Z,13.07
2019-03-17T23:24:45.507Z,7.67
2019-03-17T23:27:12.477Z,12.90
2019-03-17T23:29:39.301Z,7.70
2019-03-17T23:32:06.205Z,11.90
2019-03-17T23:34:33.038Z,13.30
2019-03-17T23:36:59.982Z,10.03
2019-03-17T23:39:26.969Z,16.00
2019-03-17T23:41:53.806Z,14.80
2019-03-17T23:44:20.617Z,12.13
2019-03-17T23:46:47.418Z,13.67
2019-03-17T23:49:14.268Z,9.27
2019-03-17T23:51:41.307Z,15.47
2019-03-17T23:54:08.129Z,11.40
2019-03-17T23:56:35.093Z,7.90
2019-03-17T23:59:02.025Z,12.90
